Airfield :
LOGIN :

Register | Disclaimer

   EN    FR    IT 

 










Legend :    VFR   Marginal VFR   IFR   Intensive IFR   Very Intensive IFR
Visi :
Ceiling :
>= 8 km
>= 3000ft
5 to 8 km
1000 to 3000 ft
1500m to 5 km
500 to 1000 ft
800 to 1500m
200 to 500 ft
< 800m
< 200 ft
Symbols :   Thunderstorms  Fog  Heavy snow  Heavy precipitations  Wind > 20 kt
SIGMETs :     Misc.  Thunderstorms  Icing  Turbulence  Mountain Waves  Volcanic Ashes







- Airport Elevation : 102 ft
- IATA code : EXT
- Download approach charts


EGTE - Exeter

CURRENT METAR :
  • 221150Z 03010KT 350V050 9999 FEW030 12/06 Q1039

EXPIRED METARs :
  • 221120Z 02009KT 350V060 9999 FEW030 12/06 Q1039
  • 221050Z 02012KT 9999 FEW030 12/06 Q1039
  • 221020Z 01011KT 340V050 9999 FEW025 12/06 Q1039
  • 220950Z 36008KT 330V050 9999 FEW022 11/06 Q1038
  • 220920Z 01006KT 330V050 CAVOK 11/06 Q1039

TAF TAF EGTE
Valid from the 22 at 12:00 until the 22 at 21:00 UTC


221056Z 2212/2221 01010KT 9999 FEW030
BECMG 2217/2220 31003KT
No reported NOTAMs for that airfield.
1 SIGMET reported for the London FIR (EGTT) :
 
Severe turbulence
EGTT SIGMET 01 VALID 220855/221200 EGRR
EGTT LONDON FIR SEV TURB FCST WI N5144 W00246 - N5249 W00044 - N5241 W00015 - N5137 W00217 - N5144 W00246 FL230/300 MOV E 25KT WKN=



MET'MAP, your aeronautical weather chart ! - Copyright ORBIFLY December 2007 - Disclaimer

ORBIFLY MET'MAP TEAM :

Programming & Development : Alexandra Zaïnal
Concept & Development : Baudouin d'Aumeries
Co-Development & Prog : Marc-Olivier Méhu
Technical & hardware support : Manuel Goepfert

Contact : metmap@orbifly.com




SOURCES & CREDITS :

   NOAA